sensor_id;sensor_type;location;lat;lon;timestamp;pressure;altitude;pressure_sealevel;temperature;humidity
79131;BME280;72396;45.194;9.142;2024-01-11T00:02:12;101838.19;;;6.51;50.60
79131;BME280;72396;45.194;9.142;2024-01-11T00:04:37;101847.81;;;6.66;50.22
79131;BME280;72396;45.194;9.142;2024-01-11T00:07:02;101840.78;;;6.37;50.14
79131;BME280;72396;45.194;9.142;2024-01-11T00:09:28;101846.06;;;6.40;50.56
79131;BME280;72396;45.194;9.142;2024-01-11T00:11:53;101838.16;;;6.45;50.87
79131;BME280;72396;45.194;9.142;2024-01-11T00:14:18;101829.44;;;6.43;50.71
79131;BME280;72396;45.194;9.142;2024-01-11T00:16:44;101841.69;;;6.54;50.37
79131;BME280;72396;45.194;9.142;2024-01-11T00:19:09;101837.34;;;6.57;50.33
79131;BME280;72396;45.194;9.142;2024-01-11T00:21:34;101824.19;;;6.36;50.87
79131;BME280;72396;45.194;9.142;2024-01-11T00:24:00;101823.34;;;6.47;49.97
79131;BME280;72396;45.194;9.142;2024-01-11T00:26:25;101821.56;;;6.32;49.97
79131;BME280;72396;45.194;9.142;2024-01-11T00:28:50;101805.81;;;6.21;49.94
79131;BME280;72396;45.194;9.142;2024-01-11T00:31:16;101819.81;;;6.37;50.14
79131;BME280;72396;45.194;9.142;2024-01-11T00:33:41;101825.91;;;6.28;50.73
79131;BME280;72396;45.194;9.142;2024-01-11T00:36:06;101825.03;;;6.20;50.42
79131;BME280;72396;45.194;9.142;2024-01-11T00:38:32;101825.00;;;6.15;49.73
79131;BME280;72396;45.194;9.142;2024-01-11T00:40:57;101829.38;;;6.16;50.24
79131;BME280;72396;45.194;9.142;2024-01-11T00:43:22;101822.41;;;6.23;50.18
79131;BME280;72396;45.194;9.142;2024-01-11T00:45:48;101820.63;;;6.09;49.62
79131;BME280;72396;45.194;9.142;2024-01-11T00:48:13;101827.69;;;6.42;49.77
79131;BME280;72396;45.194;9.142;2024-01-11T00:50:38;101829.44;;;6.30;49.94
79131;BME280;72396;45.194;9.142;2024-01-11T00:53:04;101826.78;;;6.24;49.42
79131;BME280;72396;45.194;9.142;2024-01-11T00:55:29;101812.78;;;6.20;50.35
79131;BME280;72396;45.194;9.142;2024-01-11T00:57:55;101819.84;;;6.46;49.58
79131;BME280;72396;45.194;9.142;2024-01-11T01:00:20;101829.47;;;6.52;49.03
79131;BME280;72396;45.194;9.142;2024-01-11T01:02:46;101820.72;;;6.56;49.48
79131;BME280;72396;45.194;9.142;2024-01-11T01:05:11;101818.94;;;6.39;49.67
79131;BME280;72396;45.194;9.142;2024-01-11T01:07:37;101827.69;;;6.37;49.66
79131;BME280;72396;45.194;9.142;2024-01-11T01:10:02;101822.41;;;6.14;50.11
79131;BME280;72396;45.194;9.142;2024-01-11T01:12:28;101818.88;;;6.11;50.64
79131;BME280;72396;45.194;9.142;2024-01-11T01:14:54;101804.06;;;6.15;49.62
79131;BME280;72396;45.194;9.142;2024-01-11T01:17:21;101815.38;;;6.13;50.64
79131;BME280;72396;45.194;9.142;2024-01-11T01:19:46;101816.31;;;6.24;50.27
79131;BME280;72396;45.194;9.142;2024-01-11T01:22:12;101818.97;;;6.33;50.31
79131;BME280;72396;45.194;9.142;2024-01-11T01:24:37;101820.69;;;6.40;50.15
79131;BME280;72396;45.194;9.142;2024-01-11T01:27:03;101802.31;;;6.14;50.58
79131;BME280;72396;45.194;9.142;2024-01-11T01:29:28;101817.94;;;5.95;51.17
79131;BME280;72396;45.194;9.142;2024-01-11T01:31:53;101806.59;;;5.93;50.59
79131;BME280;72396;45.194;9.142;2024-01-11T01:34:19;101800.47;;;6.01;50.99
79131;BME280;72396;45.194;9.142;2024-01-11T01:36:44;101818.03;;;6.08;50.32
79131;BME280;72396;45.194;9.142;2024-01-11T01:39:10;101823.22;;;6.05;50.35
79131;BME280;72396;45.194;9.142;2024-01-11T01:41:35;101824.06;;;5.99;50.31
79131;BME280;72396;45.194;9.142;2024-01-11T01:44:00;101812.72;;;5.97;50.95
79131;BME280;72396;45.194;9.142;2024-01-11T01:46:27;101804.03;;;6.06;50.96
79131;BME280;72396;45.194;9.142;2024-01-11T01:48:54;101817.16;;;6.09;51.12
79131;BME280;72396;45.194;9.142;2024-01-11T01:51:21;101809.28;;;6.12;50.41
79131;BME280;72396;45.194;9.142;2024-01-11T01:53:48;101804.06;;;6.15;50.34
79131;BME280;72396;45.194;9.142;2024-01-11T01:56:14;101819.81;;;6.31;50.50
79131;BME280;72396;45.194;9.142;2024-01-11T01:58:41;101821.56;;;6.25;49.67
79131;BME280;72396;45.194;9.142;2024-01-11T02:01:08;101811.91;;;6.21;50.44
79131;BME280;72396;45.194;9.142;2024-01-11T02:03:35;101814.53;;;6.12;50.52
79131;BME280;72396;45.194;9.142;2024-01-11T02:06:04;101824.16;;;6.18;50.61
79131;BME280;72396;45.194;9.142;2024-01-11T02:08:30;101814.53;;;6.12;50.76
79131;BME280;72396;45.194;9.142;2024-01-11T02:10:57;101825.88;;;6.17;50.28
79131;BME280;72396;45.194;9.142;2024-01-11T02:13:24;101832.00;;;6.13;51.26
79131;BME280;72396;45.194;9.142;2024-01-11T02:15:50;101825.00;;;6.18;50.49
79131;BME280;72396;45.194;9.142;2024-01-11T02:18:15;101830.25;;;6.09;51.31
79131;BME280;72396;45.194;9.142;2024-01-11T02:20:41;101826.69;;;5.99;50.46
79131;BME280;72396;45.194;9.142;2024-01-11T02:23:19;101817.00;;;5.87;51.36
79131;BME280;72396;45.194;9.142;2024-01-11T02:25:46;101830.22;;;6.04;51.21
79131;BME280;72396;45.194;9.142;2024-01-11T02:28:11;101822.28;;;5.95;51.90
79131;BME280;72396;45.194;9.142;2024-01-11T02:30:37;101824.97;;;6.01;50.85
79131;BME280;72396;45.194;9.142;2024-01-11T02:33:03;101815.28;;;5.91;51.15
79131;BME280;72396;45.194;9.142;2024-01-11T02:35:29;101823.16;;;5.95;51.26
79131;BME280;72396;45.194;9.142;2024-01-11T02:37:56;101816.16;;;5.88;51.51
79131;BME280;72396;45.194;9.142;2024-01-11T02:40:22;101810.94;;;5.93;51.34
79131;BME280;72396;45.194;9.142;2024-01-11T02:42:48;101796.09;;;5.86;51.31
79131;BME280;72396;45.194;9.142;2024-01-11T02:45:13;101810.09;;;6.00;51.37
79131;BME280;72396;45.194;9.142;2024-01-11T02:47:38;101789.97;;;5.87;51.82
79131;BME280;72396;45.194;9.142;2024-01-11T02:50:07;101796.06;;;5.84;50.92
79131;BME280;72396;45.194;9.142;2024-01-11T02:52:33;101784.72;;;5.79;51.07
79131;BME280;72396;45.194;9.142;2024-01-11T02:54:59;101796.09;;;5.89;51.31
79131;BME280;72396;45.194;9.142;2024-01-11T02:57:24;101791.75;;;5.89;51.53
79131;BME280;72396;45.194;9.142;2024-01-11T02:59:51;101782.06;;;5.74;51.75
79131;BME280;72396;45.194;9.142;2024-01-11T03:02:16;101779.34;;;5.49;52.21
79131;BME280;72396;45.194;9.142;2024-01-11T03:04:41;101786.41;;;5.71;52.02
79131;BME280;72396;45.194;9.142;2024-01-11T03:07:07;101770.69;;;5.64;52.12
79131;BME280;72396;45.194;9.142;2024-01-11T03:09:32;101782.97;;;5.84;51.72
79131;BME280;72396;45.194;9.142;2024-01-11T03:11:59;101773.38;;;5.83;51.50
79131;BME280;72396;45.194;9.142;2024-01-11T03:14:24;101780.38;;;5.82;51.33
79131;BME280;72396;45.194;9.142;2024-01-11T03:16:50;101778.59;;;5.74;51.52
79131;BME280;72396;45.194;9.142;2024-01-11T03:19:15;101774.22;;;5.73;52.29
79131;BME280;72396;45.194;9.142;2024-01-11T03:21:44;101758.47;;;5.66;52.18
79131;BME280;72396;45.194;9.142;2024-01-11T03:24:09;101775.06;;;5.68;51.65
79131;BME280;72396;45.194;9.142;2024-01-11T03:26:34;101767.19;;;5.62;52.52
79131;BME280;72396;45.194;9.142;2024-01-11T03:29:00;101768.94;;;5.60;52.52
79131;BME280;72396;45.194;9.142;2024-01-11T03:31:25;101768.06;;;5.58;52.71
79131;BME280;72396;45.194;9.142;2024-01-11T03:33:50;101771.56;;;5.66;52.01
79131;BME280;72396;45.194;9.142;2024-01-11T03:36:16;101761.03;;;5.51;52.30
79131;BME280;72396;45.194;9.142;2024-01-11T03:38:41;101765.41;;;5.55;53.03
79131;BME280;72396;45.194;9.142;2024-01-11T03:41:08;101768.00;;;5.52;52.55
79131;BME280;72396;45.194;9.142;2024-01-11T03:43:35;101753.91;;;5.17;53.20
79131;BME280;72396;45.194;9.142;2024-01-11T03:46:00;101766.19;;;5.38;53.16
79131;BME280;72396;45.194;9.142;2024-01-11T03:48:26;101763.56;;;5.38;53.38
79131;BME280;72396;45.194;9.142;2024-01-11T03:50:51;101763.63;;;5.45;53.55
79131;BME280;72396;45.194;9.142;2024-01-11T03:53:17;101759.28;;;5.50;52.89
79131;BME280;72396;45.194;9.142;2024-01-11T03:55:42;101751.41;;;5.40;52.58
79131;BME280;72396;45.194;9.142;2024-01-11T03:58:07;101759.25;;;5.45;52.87
79131;BME280;72396;45.194;9.142;2024-01-11T04:00:33;101760.16;;;5.46;52.50
79131;BME280;72396;45.194;9.142;2024-01-11T04:02:58;101752.22;;;5.30;53.04
79131;BME280;72396;45.194;9.142;2024-01-11T04:05:24;101759.22;;;5.33;53.45
79131;BME280;72396;45.194;9.142;2024-01-11T04:07:49;101746.94;;;5.19;53.12
79131;BME280;72396;45.194;9.142;2024-01-11T04:10:17;101759.13;;;5.20;53.55
79131;BME280;72396;45.194;9.142;2024-01-11T04:12:42;101754.63;;;4.96;53.98
79131;BME280;72396;45.194;9.142;2024-01-11T04:15:08;101744.16;;;4.96;54.52
79131;BME280;72396;45.194;9.142;2024-01-11T04:17:33;101743.34;;;5.03;53.61
79131;BME280;72396;45.194;9.142;2024-01-11T04:19:59;101743.38;;;5.06;53.88
79131;BME280;72396;45.194;9.142;2024-01-11T04:22:24;101749.53;;;5.18;53.97
79131;BME280;72396;45.194;9.142;2024-01-11T04:24:49;101746.06;;;5.22;54.12
79131;BME280;72396;45.194;9.142;2024-01-11T04:27:15;101748.63;;;5.16;53.76
79131;BME280;72396;45.194;9.142;2024-01-11T04:29:40;101744.34;;;5.25;53.84
79131;BME280;72396;45.194;9.142;2024-01-11T04:32:05;101739.97;;;5.24;53.48
79131;BME280;72396;45.194;9.142;2024-01-11T04:34:31;101746.97;;;5.24;53.52
79131;BME280;72396;45.194;9.142;2024-01-11T04:36:56;101739.91;;;5.12;54.09
79131;BME280;72396;45.194;9.142;2024-01-11T04:39:21;101742.44;;;5.01;54.65
79131;BME280;72396;45.194;9.142;2024-01-11T04:41:47;101732.81;;;4.95;54.20
79131;BME280;72396;45.194;9.142;2024-01-11T04:44:13;101731.97;;;4.98;54.61
79131;BME280;72396;45.194;9.142;2024-01-11T04:46:38;101727.69;;;5.06;54.18
79131;BME280;72396;45.194;9.142;2024-01-11T04:49:04;101727.72;;;5.14;54.37
79131;BME280;72396;45.194;9.142;2024-01-11T04:51:29;101733.84;;;5.21;54.03
79131;BME280;72396;45.194;9.142;2024-01-11T04:53:54;101724.19;;;5.06;54.16
79131;BME280;72396;45.194;9.142;2024-01-11T04:56:20;101711.91;;;4.94;54.58
79131;BME280;72396;45.194;9.142;2024-01-11T04:58:47;101729.34;;;4.92;54.69
79131;BME280;72396;45.194;9.142;2024-01-11T05:01:13;101727.59;;;4.95;54.83
79131;BME280;72396;45.194;9.142;2024-01-11T05:03:40;101736.16;;;4.73;54.53
79131;BME280;72396;45.194;9.142;2024-01-11T05:06:05;101714.19;;;4.47;55.31
79131;BME280;72396;45.194;9.142;2024-01-11T05:08:31;101722.88;;;4.43;55.97
79131;BME280;72396;45.194;9.142;2024-01-11T05:10:56;101712.97;;;4.06;56.17
79131;BME280;72396;45.194;9.142;2024-01-11T05:13:22;101722.50;;;4.04;57.16
79131;BME280;72396;45.194;9.142;2024-01-11T05:15:47;101723.38;;;4.03;57.26
79131;BME280;72396;45.194;9.142;2024-01-11T05:18:13;101711.16;;;3.99;56.82
79131;BME280;72396;45.194;9.142;2024-01-11T05:20:39;101713.00;;;4.08;56.42
79131;BME280;72396;45.194;9.142;2024-01-11T05:23:05;101727.72;;;4.06;57.10
79131;BME280;72396;45.194;9.142;2024-01-11T05:25:31;101717.38;;;4.13;56.66
79131;BME280;72396;45.194;9.142;2024-01-11T05:27:59;101725.63;;;4.62;55.70
79131;BME280;72396;45.194;9.142;2024-01-11T05:30:25;101731.88;;;4.82;55.60
79131;BME280;72396;45.194;9.142;2024-01-11T05:32:50;101731.00;;;4.82;55.25
79131;BME280;72396;45.194;9.142;2024-01-11T05:35:15;101730.13;;;4.84;55.02
79131;BME280;72396;45.194;9.142;2024-01-11T05:37:41;101724.88;;;4.80;55.48
79131;BME280;72396;45.194;9.142;2024-01-11T05:40:07;101724.06;;;4.87;55.41
79131;BME280;72396;45.194;9.142;2024-01-11T05:42:33;101723.25;;;4.93;54.95
79131;BME280;72396;45.194;9.142;2024-01-11T05:44:58;101713.59;;;4.81;54.61
79131;BME280;72396;45.194;9.142;2024-01-11T05:47:23;101697.91;;;4.84;55.16
79131;BME280;72396;45.194;9.142;2024-01-11T05:49:49;101726.75;;;4.95;54.91
79131;BME280;72396;45.194;9.142;2024-01-11T05:52:15;101725.00;;;4.97;55.17
79131;BME280;72396;45.194;9.142;2024-01-11T05:54:40;101723.28;;;4.97;54.59
79131;BME280;72396;45.194;9.142;2024-01-11T05:57:05;101725.00;;;4.97;54.62
79131;BME280;72396;45.194;9.142;2024-01-11T05:59:32;101722.25;;;4.80;54.24
79131;BME280;72396;45.194;9.142;2024-01-11T06:01:58;101732.00;;;5.04;54.38
79131;BME280;72396;45.194;9.142;2024-01-11T06:04:26;101727.63;;;5.00;54.02
79131;BME280;72396;45.194;9.142;2024-01-11T06:06:51;101727.59;;;4.95;53.41
79131;BME280;72396;45.194;9.142;2024-01-11T06:09:16;101727.56;;;4.89;54.09
79131;BME280;72396;45.194;9.142;2024-01-11T06:11:42;101735.28;;;4.74;54.55
79131;BME280;72396;45.194;9.142;2024-01-11T06:14:07;101739.66;;;4.73;55.02
79131;BME280;72396;45.194;9.142;2024-01-11T06:16:32;101738.72;;;4.68;55.35
79131;BME280;72396;45.194;9.142;2024-01-11T06:18:58;101726.59;;;4.73;54.61
79131;BME280;72396;45.194;9.142;2024-01-11T06:21:23;101738.88;;;4.87;55.24
79131;BME280;72396;45.194;9.142;2024-01-11T06:23:48;101727.47;;;4.77;54.99
79131;BME280;72396;45.194;9.142;2024-01-11T06:26:14;101736.19;;;4.74;56.06
79131;BME280;72396;45.194;9.142;2024-01-11T06:28:39;101726.53;;;4.65;56.18
79131;BME280;72396;45.194;9.142;2024-01-11T06:31:05;101736.28;;;4.88;55.51
79131;BME280;72396;45.194;9.142;2024-01-11T06:33:30;101726.69;;;4.90;55.57
79131;BME280;72396;45.194;9.142;2024-01-11T06:35:57;101717.03;;;4.78;56.16
79131;BME280;72396;45.194;9.142;2024-01-11T06:38:22;101733.63;;;4.82;56.29
79131;BME280;72396;45.194;9.142;2024-01-11T06:40:48;101735.34;;;4.81;57.00
79131;BME280;72396;45.194;9.142;2024-01-11T06:43:14;101732.84;;;4.94;57.25
79131;BME280;72396;45.194;9.142;2024-01-11T06:45:40;101724.09;;;4.90;57.13
79131;BME280;72396;45.194;9.142;2024-01-11T06:48:05;101714.50;;;4.92;57.06
79131;BME280;72396;45.194;9.142;2024-01-11T06:50:31;101717.97;;;4.88;57.02
79131;BME280;72396;45.194;9.142;2024-01-11T06:52:56;101724.88;;;4.80;57.88
79131;BME280;72396;45.194;9.142;2024-01-11T06:55:22;101721.38;;;4.76;57.37
79131;BME280;72396;45.194;9.142;2024-01-11T06:57:48;101719.66;;;4.78;57.39
79131;BME280;72396;45.194;9.142;2024-01-11T07:00:13;101722.22;;;4.74;57.56
79131;BME280;72396;45.194;9.142;2024-01-11T07:02:39;101707.38;;;4.71;57.28
79131;BME280;72396;45.194;9.142;2024-01-11T07:05:05;101730.13;;;4.78;57.74
79131;BME280;72396;45.194;9.142;2024-01-11T07:07:31;101716.09;;;4.68;57.65
79131;BME280;72396;45.194;9.142;2024-01-11T07:09:58;101723.16;;;4.80;57.43
79131;BME280;72396;45.194;9.142;2024-01-11T07:12:23;101712.53;;;4.60;57.74
79131;BME280;72396;45.194;9.142;2024-01-11T07:14:49;101722.13;;;4.60;57.88
79131;BME280;72396;45.194;9.142;2024-01-11T07:17:14;101723.94;;;4.65;57.67
79131;BME280;72396;45.194;9.142;2024-01-11T07:19:39;101723.84;;;4.56;57.94
79131;BME280;72396;45.194;9.142;2024-01-11T07:22:05;101717.69;;;4.49;57.53
79131;BME280;72396;45.194;9.142;2024-01-11T07:24:30;101741.28;;;4.57;57.58
79131;BME280;72396;45.194;9.142;2024-01-11T07:27:03;101737.00;;;4.70;57.62
79131;BME280;72396;45.194;9.142;2024-01-11T07:29:29;101715.19;;;4.65;58.04
79131;BME280;72396;45.194;9.142;2024-01-11T07:31:54;101730.03;;;4.72;57.51
79131;BME280;72396;45.194;9.142;2024-01-11T07:34:20;101725.75;;;4.77;57.78
79131;BME280;72396;45.194;9.142;2024-01-11T07:36:45;101733.59;;;4.79;57.88
79131;BME280;72396;45.194;9.142;2024-01-11T07:39:10;101733.59;;;4.80;57.33
79131;BME280;72396;45.194;9.142;2024-01-11T07:41:36;101734.38;;;4.70;58.37
79131;BME280;72396;45.194;9.142;2024-01-11T07:44:01;101731.78;;;4.65;58.78
79131;BME280;72396;45.194;9.142;2024-01-11T07:46:26;101730.03;;;4.72;58.29
79131;BME280;72396;45.194;9.142;2024-01-11T07:48:52;101708.25;;;4.70;57.79
79131;BME280;72396;45.194;9.142;2024-01-11T07:51:17;101727.47;;;4.77;58.20
79131;BME280;72396;45.194;9.142;2024-01-11T07:53:44;101730.94;;;4.73;58.24
79131;BME280;72396;45.194;9.142;2024-01-11T07:56:09;101733.56;;;4.74;58.34
79131;BME280;72396;45.194;9.142;2024-01-11T07:58:34;101711.69;;;4.61;58.46
79131;BME280;72396;45.194;9.142;2024-01-11T08:01:03;101723.00;;;4.59;59.18
79131;BME280;72396;45.194;9.142;2024-01-11T08:03:29;101710.97;;;4.81;58.62
79131;BME280;72396;45.194;9.142;2024-01-11T08:05:55;101723.22;;;4.90;57.95
79131;BME280;72396;45.194;9.142;2024-01-11T08:08:20;101723.28;;;4.97;58.24
79131;BME280;72396;45.194;9.142;2024-01-11T08:10:47;101729.41;;;5.09;57.98
79131;BME280;72396;45.194;9.142;2024-01-11T08:13:13;101731.16;;;5.10;57.99
79131;BME280;72396;45.194;9.142;2024-01-11T08:15:39;101741.59;;;5.05;57.22
79131;BME280;72396;45.194;9.142;2024-01-11T08:18:04;101745.00;;;4.93;58.61
79131;BME280;72396;45.194;9.142;2024-01-11T08:20:30;101744.16;;;4.93;58.20
79131;BME280;72396;45.194;9.142;2024-01-11T08:22:55;101727.59;;;4.91;58.38
79131;BME280;72396;45.194;9.142;2024-01-11T08:25:21;101737.22;;;5.04;58.65
79131;BME280;72396;45.194;9.142;2024-01-11T08:27:48;101719.78;;;5.00;58.85
79131;BME280;72396;45.194;9.142;2024-01-11T08:30:13;101729.53;;;5.23;58.29
79131;BME280;72396;45.194;9.142;2024-01-11T08:32:39;101728.59;;;5.15;58.21
79131;BME280;72396;45.194;9.142;2024-01-11T08:35:08;101734.75;;;5.23;57.85
79131;BME280;72396;45.194;9.142;2024-01-11T08:37:35;101736.41;;;5.13;57.78
79131;BME280;72396;45.194;9.142;2024-01-11T08:40:00;101718.97;;;5.12;57.59
79131;BME280;72396;45.194;9.142;2024-01-11T08:42:26;101731.22;;;5.16;57.61
79131;BME280;72396;45.194;9.142;2024-01-11T08:44:51;101736.47;;;5.21;57.34
79131;BME280;72396;45.194;9.142;2024-01-11T08:47:17;101736.47;;;5.16;57.49
79131;BME280;72396;45.194;9.142;2024-01-11T08:49:43;101722.41;;;5.00;58.07
79131;BME280;72396;45.194;9.142;2024-01-11T08:52:08;101721.63;;;5.17;57.79
79131;BME280;72396;45.194;9.142;2024-01-11T08:54:34;101728.59;;;5.15;57.53
79131;BME280;72396;45.194;9.142;2024-01-11T08:56:59;101717.19;;;5.03;58.26
79131;BME280;72396;45.194;9.142;2024-01-11T08:59:25;101725.97;;;5.11;58.67
79131;BME280;72396;45.194;9.142;2024-01-11T09:01:51;101717.19;;;5.03;58.09
79131;BME280;72396;45.194;9.142;2024-01-11T09:04:17;101707.69;;;5.21;57.69
79131;BME280;72396;45.194;9.142;2024-01-11T09:06:43;101720.84;;;5.33;57.62
79131;BME280;72396;45.194;9.142;2024-01-11T09:09:10;101724.34;;;5.31;57.54
79131;BME280;72396;45.194;9.142;2024-01-11T09:11:36;101724.28;;;5.21;58.06
79131;BME280;72396;45.194;9.142;2024-01-11T09:14:01;101717.38;;;5.36;57.46
79131;BME280;72396;45.194;9.142;2024-01-11T09:16:29;101726.94;;;5.32;57.92
79131;BME280;72396;45.194;9.142;2024-01-11T09:18:55;101700.72;;;5.21;57.99
79131;BME280;72396;45.194;9.142;2024-01-11T09:21:21;101721.75;;;5.45;57.34
79131;BME280;72396;45.194;9.142;2024-01-11T09:23:47;101727.00;;;5.48;57.82
79131;BME280;72396;45.194;9.142;2024-01-11T09:26:12;101727.88;;;5.44;57.09
79131;BME280;72396;45.194;9.142;2024-01-11T09:28:38;101725.28;;;5.48;57.63
79131;BME280;72396;45.194;9.142;2024-01-11T09:31:03;101721.81;;;5.60;57.82
79131;BME280;72396;45.194;9.142;2024-01-11T09:33:29;101728.78;;;5.63;57.91
79131;BME280;72396;45.194;9.142;2024-01-11T09:35:54;101730.59;;;5.75;56.62
79131;BME280;72396;45.194;9.142;2024-01-11T09:38:21;101717.44;;;5.54;57.48
79131;BME280;72396;45.194;9.142;2024-01-11T09:40:56;101730.44;;;5.36;58.02
79131;BME280;72396;45.194;9.142;2024-01-11T09:43:25;101724.38;;;5.45;57.08
79131;BME280;72396;45.194;9.142;2024-01-11T09:45:52;101724.41;;;5.52;56.37
79131;BME280;72396;45.194;9.142;2024-01-11T09:48:20;101736.66;;;5.63;55.68
79131;BME280;72396;45.194;9.142;2024-01-11T09:50:46;101721.81;;;5.59;55.61
79131;BME280;72396;45.194;9.142;2024-01-11T09:53:13;101733.09;;;5.44;55.53
79131;BME280;72396;45.194;9.142;2024-01-11T09:55:39;101706.91;;;5.33;55.74
79131;BME280;72396;45.194;9.142;2024-01-11T09:58:05;101714.75;;;5.33;56.48
79131;BME280;72396;45.194;9.142;2024-01-11T10:00:32;101720.03;;;5.47;55.52
79131;BME280;72396;45.194;9.142;2024-01-11T10:02:57;101710.44;;;5.55;55.41
79131;BME280;72396;45.194;9.142;2024-01-11T10:05:23;101710.47;;;5.60;55.26
79131;BME280;72396;45.194;9.142;2024-01-11T10:07:48;101709.66;;;5.75;54.89
79131;BME280;72396;45.194;9.142;2024-01-11T10:10:14;101701.75;;;5.56;54.86
79131;BME280;72396;45.194;9.142;2024-01-11T10:12:42;101700.06;;;5.78;54.99
79131;BME280;72396;45.194;9.142;2024-01-11T10:15:09;101694.84;;;5.77;54.20
79131;BME280;72396;45.194;9.142;2024-01-11T10:17:44;101695.72;;;5.88;54.42
79131;BME280;72396;45.194;9.142;2024-01-11T10:20:14;101691.34;;;5.87;55.18
79131;BME280;72396;45.194;9.142;2024-01-11T10:22:43;101653.81;;;5.73;54.77
79131;BME280;72396;45.194;9.142;2024-01-11T10:25:16;101662.53;;;5.87;54.40
79131;BME280;72396;45.194;9.142;2024-01-11T10:27:42;101689.66;;;6.02;54.34
79131;BME280;72396;45.194;9.142;2024-01-11T10:30:12;101684.44;;;6.09;54.80
79131;BME280;72396;45.194;9.142;2024-01-11T10:32:39;101673.91;;;5.91;54.17
79131;BME280;72396;45.194;9.142;2024-01-11T10:35:04;101666.06;;;5.92;54.49
79131;BME280;72396;45.194;9.142;2024-01-11T10:37:31;101657.38;;;6.06;53.74
79131;BME280;72396;45.194;9.142;2024-01-11T10:39:58;101627.66;;;5.91;53.90
79131;BME280;72396;45.194;9.142;2024-01-11T10:42:29;101649.53;;;6.20;54.00
79131;BME280;72396;45.194;9.142;2024-01-11T10:44:59;101660.88;;;6.30;54.02
79131;BME280;72396;45.194;9.142;2024-01-11T10:47:30;101647.78;;;6.42;54.07
79131;BME280;72396;45.194;9.142;2024-01-11T10:49:56;101646.00;;;6.55;54.28
79131;BME280;72396;45.194;9.142;2024-01-11T10:52:26;101628.53;;;6.46;54.20
79131;BME280;72396;45.194;9.142;2024-01-11T10:54:54;101629.41;;;6.53;54.24
79131;BME280;72396;45.194;9.142;2024-01-11T10:57:21;101624.97;;;6.77;53.72
79131;BME280;72396;45.194;9.142;2024-01-11T10:59:48;101617.13;;;6.83;53.46
79131;BME280;72396;45.194;9.142;2024-01-11T11:02:16;101618.88;;;6.81;53.22
79131;BME280;72396;45.194;9.142;2024-01-11T11:04:42;101609.25;;;6.80;52.95
79131;BME280;72396;45.194;9.142;2024-01-11T11:07:09;101618.88;;;6.76;52.11
79131;BME280;72396;45.194;9.142;2024-01-11T11:09:35;101622.38;;;6.69;52.57
79131;BME280;72396;45.194;9.142;2024-01-11T11:12:01;101614.50;;;6.69;52.44
79131;BME280;72396;45.194;9.142;2024-01-11T11:14:29;101611.91;;;6.72;52.17
79131;BME280;72396;45.194;9.142;2024-01-11T11:16:58;101599.66;;;6.73;51.37
79131;BME280;72396;45.194;9.142;2024-01-11T11:19:23;101599.66;;;6.65;50.68
79131;BME280;72396;45.194;9.142;2024-01-11T11:21:49;101592.69;;;6.73;50.54
79131;BME280;72396;45.194;9.142;2024-01-11T11:24:16;101599.66;;;6.71;49.84
79131;BME280;72396;45.194;9.142;2024-01-11T11:26:44;101581.31;;;6.70;49.58
79131;BME280;72396;45.194;9.142;2024-01-11T11:29:10;101574.34;;;6.68;48.99
79131;BME280;72396;45.194;9.142;2024-01-11T11:31:42;101578.63;;;6.87;48.74
79131;BME280;72396;45.194;9.142;2024-01-11T11:34:11;101582.97;;;6.88;49.52
79131;BME280;72396;45.194;9.142;2024-01-11T11:36:39;101582.16;;;6.79;49.48
79131;BME280;72396;45.194;9.142;2024-01-11T11:39:05;101585.63;;;6.85;49.35
79131;BME280;72396;45.194;9.142;2024-01-11T11:41:31;101591.75;;;6.90;49.54
79131;BME280;72396;45.194;9.142;2024-01-11T11:44:01;101551.53;;;6.85;49.77
79131;BME280;72396;45.194;9.142;2024-01-11T11:46:28;101555.91;;;6.87;50.26
79131;BME280;72396;45.194;9.142;2024-01-11T11:48:54;101553.25;;;6.90;50.09
79131;BME280;72396;45.194;9.142;2024-01-11T11:51:21;101533.19;;;6.85;50.59
79131;BME280;72396;45.194;9.142;2024-01-11T11:53:48;101553.19;;;7.10;51.06
79131;BME280;72396;45.194;9.142;2024-01-11T11:56:13;101551.38;;;7.22;50.53
79131;BME280;72396;45.194;9.142;2024-01-11T11:58:42;101541.72;;;7.21;50.66
79131;BME280;72396;45.194;9.142;2024-01-11T12:01:11;101529.44;;;7.31;50.97
79131;BME280;72396;45.194;9.142;2024-01-11T12:03:38;101528.56;;;7.30;50.53
79131;BME280;72396;45.194;9.142;2024-01-11T12:06:06;101529.41;;;7.38;50.63
79131;BME280;72396;45.194;9.142;2024-01-11T12:08:33;101520.75;;;7.24;50.93
79131;BME280;72396;45.194;9.142;2024-01-11T12:10:59;101518.06;;;7.29;51.54
79131;BME280;72396;45.194;9.142;2024-01-11T12:13:25;101511.09;;;7.31;51.78
79131;BME280;72396;45.194;9.142;2024-01-11T12:15:50;101510.97;;;7.46;51.28
79131;BME280;72396;45.194;9.142;2024-01-11T12:18:16;101514.47;;;7.45;51.02
79131;BME280;72396;45.194;9.142;2024-01-11T12:20:41;101501.38;;;7.37;51.08
79131;BME280;72396;45.194;9.142;2024-01-11T12:23:07;101505.72;;;7.43;51.36
79131;BME280;72396;45.194;9.142;2024-01-11T12:25:33;101493.59;;;7.28;51.17
79131;BME280;72396;45.194;9.142;2024-01-11T12:27:58;101499.69;;;7.29;51.53
79131;BME280;72396;45.194;9.142;2024-01-11T12:30:25;101489.94;;;7.49;51.41
79131;BME280;72396;45.194;9.142;2024-01-11T12:32:51;101485.53;;;7.56;51.73
79131;BME280;72396;45.194;9.142;2024-01-11T12:35:17;101485.41;;;7.68;51.25
79131;BME280;72396;45.194;9.142;2024-01-11T12:40:18;101480.19;;;7.67;52.05
79131;BME280;72396;45.194;9.142;2024-01-11T12:42:43;101477.56;;;7.65;51.68
79131;BME280;72396;45.194;9.142;2024-01-11T12:45:09;101469.81;;;7.51;52.20
79131;BME280;72396;45.194;9.142;2024-01-11T12:47:34;101475.03;;;7.53;51.54
79131;BME280;72396;45.194;9.142;2024-01-11T12:50:00;101472.47;;;7.48;51.85
79131;BME280;72396;45.194;9.142;2024-01-11T12:52:25;101479.41;;;7.52;51.59
79131;BME280;72396;45.194;9.142;2024-01-11T12:54:52;101468.06;;;7.49;51.49
79131;BME280;72396;45.194;9.142;2024-01-11T12:57:19;101468.81;;;7.62;52.07